METAR AND TAF INFORMATION
METAR FOR EHGR
ADDS - METARS form results

(0840 UTC 16 December 2019)
Data provider http://aviationweather.gov/metar/data/
 
METAR text: EHGR 160827Z AUTO 19010KT 150V230 9999 SCT066 BKN072 OVC079 08/06 Q1005 BLU 19010KT CAVOK TEMPO 9999 SCT008
Conditions at: EHGR (GILZE-RIJEN RNLA, NL) observed 0827 UTC 16 December 2019
Temperature: 8.0°C (46°F)
Dewpoint: 6.0°C (43°F) [RH = 87%]
Pressure (altimeter): 29.68 inches Hg (1005.0 mb)
Winds: from the S (190 degrees) at 12 MPH (10 knots; 5.1 m/s)
Visibility: 6 or more miles (10+ km)
Ceiling: 7200 feet AGL
Clouds: scattered clouds at 6600 feet AGL
broken clouds at 7200 feet AGL
overcast cloud deck at 7900 feet AGL
Weather: no significant weather observed at this time

METAR text: EHGR 160825Z AUTO 19010KT 140V250 9999 BKN073/// OVC078/// 08/06 Q1005 BLU 19010KT CAVOK
Conditions at: EHGR (GILZE-RIJEN RNLA, NL) observed 0825 UTC 16 December 2019
Temperature: 8.0°C (46°F)
Dewpoint: 6.0°C (43°F) [RH = 87%]
Pressure (altimeter): 29.68 inches Hg (1005.0 mb)
Winds: from the S (190 degrees) at 12 MPH (10 knots; 5.1 m/s)
Visibility: 6 or more miles (10+ km)
Ceiling: 7300 feet AGL
Clouds: broken clouds at 7300 feet AGL
overcast cloud deck at 7800 feet AGL
Weather: no significant weather observed at this time

METAR text: EHGR 160755Z AUTO 20010KT 150V240 9999 FEW067 BKN074 OVC080 08/06 Q1004 BLU 19010KT CAVOK
Conditions at: EHGR (GILZE-RIJEN RNLA, NL) observed 0755 UTC 16 December 2019
Temperature: 8.0°C (46°F)
Dewpoint: 6.0°C (43°F) [RH = 87%]
Pressure (altimeter): 29.65 inches Hg (1004.0 mb)
Winds: from the SSW (200 degrees) at 12 MPH (10 knots; 5.1 m/s)
Visibility: 6 or more miles (10+ km)
Ceiling: 7400 feet AGL
Clouds: few clouds at 6700 feet AGL
broken clouds at 7400 feet AGL
overcast cloud deck at 8000 feet AGL
Weather: no significant weather observed at this time

Forecast for: EHGR (GILZE-RIJEN RNLA, NL)
Text: TAF EHGR 160550Z 1606/1618 18012KT CAVOK
Forecast period: 0600 to 1300 UTC 16 December 2019
Forecast type: FROM: standard forecast or significant change
Winds: from the S (180 degrees) at 14 MPH (12 knots; 6.2 m/s)
Visibility: 6 or more miles 10+ km)
Ceiling: unknown
Clouds: missing
Weather: NSW  (no significant weather)
Text: PROB40
Forecast period: 0600 to 0900 UTC 16 December 2019
Forecast type: TEMPORARY: The following changes expected for less than half the time period
Visibility: missing
Ceiling: 800 feet AGL
Clouds: broken clouds at 800 feet AGL
Weather: no significant weather forecast for this period
Text: TEMPO 1606/1609 BKN008
Forecast period: 1300 to 1800 UTC 16 December 2019
Forecast type: BECOMING: Conditions expected to become as follows by 1500 UTC 16 December 2019
Winds: from the ESE (120 degrees) at 6 MPH (5 knots; 2.6 m/s)
Visibility: 6 or more miles 10+ km)
Ceiling: unknown
Clouds: missing
Weather: NSW  (no significant weather)
Text: BECMG 1613/1615 12005KT
Forecast period: 1500 to 1800 UTC 16 December 2019
Forecast type: TEMPORARY: The following changes expected for less than half the time period
Visibility: 2.80 miles (4.51 km)
Ceiling: 2200 feet AGL
Clouds: scattered clouds at 1800 feet AGL
broken clouds at 2200 feet AGL
overcast cloud deck at 4000 feet AGL
Weather: -RA  (light rain)
Text: TEMPO 1615/1618 4500 -RA SCT018 BKN022 OVC040
Forecast period: 1700 to 1800 UTC 16 December 2019
Forecast type: TEMPORARY: The following changes expected for less than half the time period
Visibility: 1.86 miles (2.99 km)
Ceiling: 1200 feet AGL
Clouds: scattered clouds at 600 feet AGL
broken clouds at 1200 feet AGL
Weather: RA DZ  (moderate rain, moderate drizzle)

 AIRPORT MAP

 RUNWAY INFORMATION
Runway 02 Runway length 6549 ft Runway width 98 ft
Runway elevation 49 ft Runway displaced threshold 191 ft Runway heading 18
Runway 20 Runway length 6549 ft Runway width 98 ft
Runway elevation 40 ft Runway displaced threshold 192 ft Runway heading 198
Runway 10 Runway length 9118 ft Runway width 148 ft
Runway elevation 42 ft Runway displaced threshold 427 ft Runway heading 100
Runway 28 Runway length 9118 ft Runway width 148 ft
Runway elevation 38 ft Runway displaced threshold 331 ft Runway heading 280

 AIRPORT FREQUENCIES
Type ARR Name RAPCON WES Frequency 123.575 MHZ
Type GND Name GND Frequency 23.492 MHZ
Type TWR Name TWR Frequency 125.325 MHZ

 AIRPORT NEAR NAVIGATION AIDS
Type TACAN Name Gilze Rijen Frequency 116400 KHZ